Detall de PIREP

Printer-friendly versionPDF version

[2012/12/05 11:44:00]
Flight IATA:CT1005
Pilot Number:042
Company ICAO:CAT
Aircraft Type:F70/A
PAX:10
Aircraft Registration:PFJ
Departing Airport: EBBR
Destination Airport: ELLX
Alternate Airport:EDDK
Online: VATSIM
Route:LNO
Flight Level:F190
No Slew and time accel
No pause
Crash detect
Detect pilot in Cockpit between each 30 and 45 minutes
11:44 Zero fuel Weight: 72667 Lbs, Fuel Weight: 22685 Lbs
11:44 VATSIM:EBBR 051120Z 22006KT 6000 -RA FEW004 BKN007 02/01 Q1004 NOSIG
11:44 VATSIM:ELLX 051120Z 28011KT 260V320 9999 SCT008 BKN010 01/M01 Q1003 NOSIG
11:44 VOICE CATALONIAN/EU TOUR
11:47 Parking Brakes off
11:51 Take-off
11:51 Take off Weight: 95007 Lbs
11:51 Wind: 223º @ 006 Knots Heading: 249º
11:51 POS N50º 53´ 29´´ E004º 29´ 27´´
11:51 Gear Up: 156 Knots
11:51 Flaps:1 at 156 Knots
11:51 Flaps:0 at 162 Knots
12:00 TOC
12:00 Fuel Weight: 21033 Lb
12:06 Wind:258º@022 Knots Heading: 161º Ground Speed: 405 Knots Altitude 18674 ft
12:06 TOD
12:06 Fuel Weight: 20407 Lb
12:18 Flaps:1 at 169 Knots
12:20 Flaps:2 at 163 Knots
12:20 Gear Down: 162 Knots
12:20 Flaps:3 at 162 Knots
12:21 Wind:279º@008 Knots Heading: 242º Ground Speed: 140 Knots Altitude 2316 ft
12:22 TouchDown:Rate -238 ft/min Speed: 114 Knots
12:23 VATSIM:ELLX 051150Z 28008KT 240V310 9999 BKN009 01/M01 Q1003 NOSIG
12:23 Land
12:23 Wind:271º@008 Knots
12:23 Heading: 237º
12:23 Flight Duration: 00:32
12:23 Landing Weight: 92491 Lbs
12:23 POS N49º 37´ 43´´ E006º 13´ 00´´
12:25 Parking brakes on
12:25 Block to Block Duration: 00:38
12:25 Final Fuel: 19607 Lbls
12:25 Spent Fuel: 3077 Lbls
12:25 Flight Length: 145 NM
12:25 TOD Land Length: 60 NM

Exportar CSV

Powered by Drupal - Modified by Danger4k